createdAt,value
2022-12-26T00:00:45.479Z,65.43
2022-12-26T00:03:13.226Z,52.03
2022-12-26T00:05:41.084Z,95.27
2022-12-26T00:08:10.052Z,40.87
2022-12-26T00:10:37.637Z,39.43
2022-12-26T00:13:38.798Z,83.53
2022-12-26T00:15:52.997Z,38.63
2022-12-26T00:18:20.715Z,41.00
2022-12-26T00:20:48.312Z,44.00
2022-12-26T00:23:17.300Z,38.70
2022-12-26T00:25:44.880Z,40.60
2022-12-26T00:28:12.497Z,45.10
2022-12-26T00:30:40.066Z,41.57
2022-12-26T00:33:07.630Z,42.60
2022-12-26T00:35:35.351Z,40.67
2022-12-26T00:38:02.935Z,43.20
2022-12-26T00:40:31.906Z,42.03
2022-12-26T00:42:59.470Z,43.23
2022-12-26T00:45:27.056Z,45.50
2022-12-26T00:47:54.669Z,42.67
2022-12-26T00:50:22.282Z,47.27
2022-12-26T00:52:49.928Z,63.70
2022-12-26T00:55:17.740Z,74.83
2022-12-26T00:57:46.836Z,45.27
2022-12-26T01:00:15.860Z,46.00
2022-12-26T01:02:43.710Z,46.80
2022-12-26T01:05:12.673Z,57.40
2022-12-26T01:08:23.543Z,45.43
2022-12-26T01:10:29.360Z,49.73
2022-12-26T01:12:58.303Z,45.73
2022-12-26T01:15:25.913Z,52.47
2022-12-26T01:17:53.547Z,49.53
2022-12-26T01:20:21.196Z,81.93
2022-12-26T01:22:48.794Z,125.83
2022-12-26T01:25:16.469Z,72.57
2022-12-26T01:27:44.032Z,115.67
2022-12-26T01:30:13.540Z,64.00
2022-12-26T01:32:41.138Z,63.93
2022-12-26T01:35:09.384Z,58.03
2022-12-26T01:37:37.005Z,107.23
2022-12-26T01:40:05.833Z,80.67
2022-12-26T01:42:38.659Z,54.70
2022-12-26T01:45:18.173Z,72.17
2022-12-26T01:47:52.302Z,97.90
2022-12-26T01:50:29.478Z,72.73
2022-12-26T01:53:00.874Z,72.97
2022-12-26T01:55:31.456Z,106.07
2022-12-26T01:58:03.898Z,73.67
2022-12-26T02:00:33.081Z,112.60
2022-12-26T02:03:19.742Z,200.60
2022-12-26T02:05:47.435Z,134.13
2022-12-26T02:08:18.239Z,118.13
2022-12-26T02:10:51.140Z,158.50
2022-12-26T02:13:19.872Z,69.30
2022-12-26T02:15:48.444Z,195.53
2022-12-26T02:18:17.544Z,122.53
2022-12-26T02:20:58.923Z,122.67
2022-12-26T02:24:16.519Z,61.63
2022-12-26T02:27:06.368Z,68.57
2022-12-26T02:30:04.815Z,134.27
2022-12-26T02:32:59.638Z,101.10
2022-12-26T02:35:38.893Z,311.27
2022-12-26T02:38:16.974Z,208.27
2022-12-26T02:40:54.537Z,161.50
2022-12-26T02:43:33.518Z,124.60
2022-12-26T02:46:29.128Z,69.87
2022-12-26T02:49:04.859Z,133.30
2022-12-26T02:52:06.150Z,290.87
2022-12-26T02:55:02.749Z,156.13
2022-12-26T02:57:55.230Z,121.77
2022-12-26T03:00:40.698Z,95.10
2022-12-26T03:03:30.094Z,80.83
2022-12-26T03:06:21.024Z,63.87
2022-12-26T03:09:12.761Z,56.90
2022-12-26T03:12:01.286Z,46.33
2022-12-26T03:14:33.229Z,44.00
2022-12-26T03:17:21.944Z,43.63
2022-12-26T03:20:00.687Z,43.97
2022-12-26T03:22:35.784Z,38.87
2022-12-26T03:25:24.972Z,36.80
2022-12-26T03:27:53.878Z,37.60
2022-12-26T03:30:39.280Z,33.57
2022-12-26T03:33:28.590Z,32.80
2022-12-26T03:35:55.397Z,33.63
2022-12-26T03:38:31.044Z,34.13
2022-12-26T03:41:24.075Z,34.73
2022-12-26T03:44:25.021Z,34.03
2022-12-26T03:47:24.024Z,35.73
2022-12-26T03:50:13.911Z,35.80
2022-12-26T03:53:09.946Z,34.87
2022-12-26T03:56:05.490Z,36.97
2022-12-26T03:58:56.123Z,36.60
2022-12-26T04:01:46.259Z,35.40
2022-12-26T04:04:33.997Z,36.90
2022-12-26T04:07:26.827Z,39.07
2022-12-26T04:10:17.502Z,39.03
2022-12-26T04:13:06.011Z,40.43
2022-12-26T04:15:59.799Z,38.17
2022-12-26T04:18:53.501Z,39.33
2022-12-26T04:21:45.315Z,37.20
2022-12-26T04:24:35.019Z,42.43
2022-12-26T04:27:23.312Z,55.93
2022-12-26T04:30:09.763Z,38.40
2022-12-26T04:32:58.145Z,54.87
2022-12-26T04:35:49.518Z,39.30
2022-12-26T04:38:40.589Z,38.20
2022-12-26T04:41:28.756Z,35.37
2022-12-26T04:44:11.808Z,34.23
2022-12-26T04:46:43.405Z,34.43
2022-12-26T04:49:31.803Z,31.27
2022-12-26T04:52:01.787Z,32.93
2022-12-26T04:54:30.041Z,30.90
2022-12-26T04:56:57.809Z,31.23
2022-12-26T04:59:26.257Z,29.37
2022-12-26T05:02:13.145Z,29.37
2022-12-26T05:04:58.147Z,29.93
2022-12-26T05:07:46.786Z,29.47
2022-12-26T05:10:19.045Z,30.23
2022-12-26T05:12:46.736Z,34.13
2022-12-26T05:15:14.519Z,33.27
2022-12-26T05:18:01.085Z,37.67
2022-12-26T05:20:45.256Z,42.40
2022-12-26T05:23:38.527Z,43.80
2022-12-26T05:26:24.818Z,41.27
2022-12-26T05:28:57.428Z,46.60
2022-12-26T05:31:29.775Z,59.27
2022-12-26T05:34:06.731Z,49.57
2022-12-26T05:36:38.429Z,44.20
2022-12-26T05:39:06.913Z,39.47
2022-12-26T05:41:34.697Z,47.57
2022-12-26T05:44:02.274Z,42.50
2022-12-26T05:46:30.045Z,44.00
2022-12-26T05:48:57.659Z,67.73
2022-12-26T05:51:26.856Z,57.93
2022-12-26T05:53:54.867Z,46.67
2022-12-26T05:56:23.166Z,48.40
2022-12-26T05:58:55.729Z,40.17
2022-12-26T06:01:23.721Z,52.10
2022-12-26T06:03:53.998Z,70.30
2022-12-26T06:06:23.034Z,54.67
2022-12-26T06:08:54.222Z,55.37
2022-12-26T06:11:22.729Z,53.50
2022-12-26T06:13:50.346Z,49.97
2022-12-26T06:16:19.832Z,60.57
2022-12-26T06:18:48.280Z,48.27
2022-12-26T06:21:19.016Z,45.50
2022-12-26T06:23:47.330Z,60.63
2022-12-26T06:26:17.182Z,53.40
2022-12-26T06:28:46.988Z,49.00
2022-12-26T06:31:20.441Z,49.40
2022-12-26T06:33:49.009Z,51.77
2022-12-26T06:36:18.721Z,43.10
2022-12-26T06:38:46.977Z,49.90
2022-12-26T06:41:19.640Z,49.80
2022-12-26T06:43:48.867Z,46.10
2022-12-26T06:46:20.075Z,53.30
2022-12-26T06:48:47.755Z,41.93
2022-12-26T06:51:17.660Z,42.40
2022-12-26T06:53:45.756Z,42.47
2022-12-26T06:56:15.642Z,53.80
2022-12-26T06:58:45.102Z,45.23
2022-12-26T07:01:14.963Z,44.57
2022-12-26T07:03:50.742Z,54.47
2022-12-26T07:06:24.593Z,47.60
2022-12-26T07:08:53.336Z,53.37
2022-12-26T07:11:22.754Z,53.03
2022-12-26T07:13:52.394Z,50.33
2022-12-26T07:16:20.067Z,58.47
2022-12-26T07:18:47.735Z,56.43
2022-12-26T07:21:16.618Z,54.73
2022-12-26T07:23:44.589Z,66.13
2022-12-26T07:26:12.209Z,56.60
2022-12-26T07:28:39.790Z,54.33
2022-12-26T07:31:08.860Z,61.97
2022-12-26T07:33:36.715Z,54.07
2022-12-26T07:36:06.608Z,53.83
2022-12-26T07:38:34.868Z,51.10
2022-12-26T07:41:23.173Z,59.60
2022-12-26T07:43:51.070Z,51.30
2022-12-26T07:46:20.461Z,52.43
2022-12-26T07:48:48.192Z,55.10
2022-12-26T07:51:15.742Z,54.53
2022-12-26T07:53:43.350Z,57.37
2022-12-26T07:56:10.882Z,50.23
2022-12-26T07:58:38.460Z,48.87
2022-12-26T08:01:06.479Z,49.10
2022-12-26T08:03:35.902Z,56.80
2022-12-26T08:06:04.095Z,47.93
2022-12-26T08:08:31.738Z,59.00
2022-12-26T08:11:00.307Z,66.90
2022-12-26T08:13:29.237Z,57.80
2022-12-26T08:15:57.170Z,53.40
2022-12-26T08:18:25.238Z,58.77
2022-12-26T08:20:54.217Z,52.23
2022-12-26T08:23:21.773Z,59.53
2022-12-26T08:25:49.360Z,58.43
2022-12-26T08:28:17.463Z,56.57
2022-12-26T08:30:45.490Z,58.77
2022-12-26T08:33:14.049Z,54.87
2022-12-26T08:35:41.717Z,50.17
2022-12-26T08:38:10.602Z,52.90
2022-12-26T08:40:45.266Z,52.00
2022-12-26T08:46:02.445Z,53.37
2022-12-26T08:48:30.596Z,57.43
2022-12-26T08:51:00.584Z,50.80
2022-12-26T08:53:32.597Z,51.27
2022-12-26T08:56:00.807Z,48.17
2022-12-26T08:58:29.467Z,48.67
2022-12-26T09:00:57.275Z,46.30
2022-12-26T09:03:24.965Z,48.47
2022-12-26T09:05:52.591Z,45.83
2022-12-26T09:08:20.123Z,44.67
2022-12-26T09:10:49.042Z,45.23
2022-12-26T09:13:16.760Z,45.13
2022-12-26T09:15:44.311Z,48.33
2022-12-26T09:18:13.007Z,46.27
2022-12-26T09:20:40.656Z,48.60
2022-12-26T09:23:10.787Z,48.07
2022-12-26T09:25:38.757Z,46.77
2022-12-26T09:28:07.685Z,45.70
2022-12-26T09:30:35.530Z,46.97
2022-12-26T09:33:04.049Z,47.27
2022-12-26T09:35:31.894Z,47.87
2022-12-26T09:37:59.480Z,48.77
2022-12-26T09:40:37.546Z,48.60
2022-12-26T09:43:20.978Z,51.30
2022-12-26T09:45:58.710Z,48.03
2022-12-26T09:48:32.719Z,49.83
2022-12-26T09:51:00.345Z,48.50
2022-12-26T09:53:34.575Z,48.37
2022-12-26T09:56:08.608Z,47.77
2022-12-26T09:58:46.396Z,46.87
2022-12-26T10:01:17.100Z,48.57
2022-12-26T10:03:48.738Z,49.13
2022-12-26T10:06:19.509Z,46.83
2022-12-26T10:09:14.519Z,47.50
2022-12-26T10:12:05.561Z,47.90
2022-12-26T10:14:41.662Z,47.27
2022-12-26T10:17:19.412Z,46.10
2022-12-26T10:20:01.497Z,46.67
2022-12-26T10:22:43.233Z,43.40
2022-12-26T10:25:17.378Z,44.47
2022-12-26T10:27:49.263Z,44.57
2022-12-26T10:30:23.033Z,46.50
2022-12-26T10:32:56.183Z,43.60
2022-12-26T10:35:31.331Z,43.23
2022-12-26T10:38:03.119Z,43.77
2022-12-26T10:40:36.819Z,45.50
2022-12-26T10:43:22.029Z,43.27
2022-12-26T10:45:59.491Z,42.80
2022-12-26T10:48:29.302Z,43.90
2022-12-26T10:50:57.071Z,45.37
2022-12-26T10:53:24.729Z,41.73
2022-12-26T10:55:52.397Z,45.30
2022-12-26T10:58:23.802Z,43.83
2022-12-26T11:00:52.958Z,43.80
2022-12-26T11:03:22.143Z,41.83
2022-12-26T11:06:10.125Z,41.67
2022-12-26T11:08:43.629Z,42.87
2022-12-26T11:11:15.409Z,41.87
2022-12-26T11:13:48.343Z,42.33
2022-12-26T11:16:26.771Z,42.13
2022-12-26T11:18:54.576Z,41.33
2022-12-26T11:21:25.488Z,41.63
2022-12-26T11:23:55.917Z,39.67
2022-12-26T11:26:25.743Z,41.47
2022-12-26T11:29:07.913Z,38.80
2022-12-26T11:31:38.051Z,41.13
2022-12-26T11:34:10.475Z,40.47
2022-12-26T11:36:41.398Z,40.97
2022-12-26T11:39:23.302Z,39.70
2022-12-26T11:41:52.925Z,39.50
2022-12-26T11:44:25.865Z,39.90
2022-12-26T11:46:58.664Z,39.40
2022-12-26T11:49:30.969Z,39.37
2022-12-26T11:52:00.355Z,37.93
2022-12-26T11:54:32.357Z,36.90
2022-12-26T11:57:12.969Z,39.00
2022-12-26T11:59:41.046Z,42.10
2022-12-26T12:02:25.144Z,41.00
2022-12-26T12:04:58.663Z,38.20
2022-12-26T12:07:44.659Z,39.43
2022-12-26T12:10:35.919Z,40.57
2022-12-26T12:13:12.400Z,38.23
2022-12-26T12:15:51.236Z,37.20
2022-12-26T12:18:31.423Z,37.90
2022-12-26T12:21:09.095Z,35.33
2022-12-26T12:23:52.127Z,36.70
2022-12-26T12:26:29.122Z,35.00
2022-12-26T12:29:14.864Z,35.83
2022-12-26T12:31:56.907Z,36.23
2022-12-26T12:34:32.884Z,36.67
2022-12-26T12:37:23.652Z,34.00
2022-12-26T12:39:58.425Z,34.10
2022-12-26T12:42:36.590Z,31.50
2022-12-26T12:45:21.838Z,29.93
2022-12-26T12:48:00.475Z,30.63
2022-12-26T12:50:33.595Z,30.73
2022-12-26T12:53:10.348Z,30.73
2022-12-26T12:56:02.759Z,30.73
2022-12-26T12:58:38.207Z,33.90
2022-12-26T13:01:12.181Z,36.70
2022-12-26T13:03:47.504Z,34.27
2022-12-26T13:06:19.158Z,31.03
2022-12-26T13:08:52.151Z,30.83
2022-12-26T13:11:26.302Z,29.93
2022-12-26T13:13:57.912Z,31.30
2022-12-26T13:16:29.902Z,43.27
2022-12-26T13:19:00.863Z,30.57
2022-12-26T13:21:33.193Z,33.03
2022-12-26T13:24:22.674Z,35.90
2022-12-26T13:26:57.943Z,30.87
2022-12-26T13:29:36.409Z,32.77
2022-12-26T13:32:06.442Z,30.17
2022-12-26T13:34:43.812Z,31.40
2022-12-26T13:37:55.220Z,31.20
2022-12-26T13:40:26.447Z,29.93
2022-12-26T13:43:15.547Z,31.23
2022-12-26T13:45:53.784Z,30.17
2022-12-26T13:48:47.977Z,31.50
2022-12-26T13:51:47.291Z,30.20
2022-12-26T13:54:17.423Z,30.10
2022-12-26T13:57:22.710Z,27.73
2022-12-26T14:00:14.851Z,29.13
2022-12-26T14:03:31.353Z,31.10
2022-12-26T14:06:23.945Z,30.77
2022-12-26T14:09:10.506Z,29.43
2022-12-26T14:12:00.578Z,29.77
2022-12-26T14:14:40.927Z,31.10
2022-12-26T14:17:20.532Z,32.10
2022-12-26T14:20:00.067Z,31.07
2022-12-26T14:22:37.741Z,32.83
2022-12-26T14:25:16.025Z,30.63
2022-12-26T14:27:52.703Z,32.67
2022-12-26T14:30:25.207Z,32.60
2022-12-26T14:33:19.090Z,31.30
2022-12-26T14:35:58.703Z,32.53
2022-12-26T14:38:38.589Z,33.53
2022-12-26T14:41:08.808Z,30.17
2022-12-26T14:43:38.774Z,34.10
2022-12-26T14:46:30.930Z,33.00
2022-12-26T14:49:00.401Z,33.23
2022-12-26T14:51:38.457Z,32.67
2022-12-26T14:54:37.617Z,33.70
2022-12-26T14:57:48.181Z,31.57
2022-12-26T15:00:34.870Z,32.20
2022-12-26T15:03:41.571Z,32.67
2022-12-26T15:06:37.754Z,30.30
2022-12-26T15:09:42.227Z,32.60
2022-12-26T15:12:43.520Z,33.37
2022-12-26T15:15:29.373Z,33.43
2022-12-26T15:18:18.983Z,31.13
2022-12-26T15:21:24.150Z,32.33
2022-12-26T15:24:17.725Z,34.77
2022-12-26T15:27:02.284Z,32.37
2022-12-26T15:29:57.689Z,31.27
2022-12-26T15:32:32.573Z,31.47
2022-12-26T15:35:16.958Z,31.33
2022-12-26T15:38:18.465Z,32.00
2022-12-26T15:40:52.573Z,32.83
2022-12-26T15:43:32.215Z,34.57
2022-12-26T15:46:08.552Z,32.80
2022-12-26T15:48:51.743Z,33.20
2022-12-26T15:51:30.912Z,36.37
2022-12-26T15:54:09.233Z,34.07
2022-12-26T15:57:02.852Z,33.53
2022-12-26T16:00:05.582Z,31.50
2022-12-26T16:02:39.249Z,34.93
2022-12-26T16:05:27.590Z,31.37
2022-12-26T16:08:06.931Z,30.90
2022-12-26T16:10:37.128Z,32.87
2022-12-26T16:13:17.765Z,33.70
2022-12-26T16:15:48.486Z,32.67
2022-12-26T16:18:17.660Z,32.00
2022-12-26T16:21:13.344Z,31.47
2022-12-26T16:23:44.394Z,31.37
2022-12-26T16:26:18.708Z,32.87
2022-12-26T16:28:46.831Z,33.80
2022-12-26T16:31:20.828Z,32.10
2022-12-26T16:33:49.151Z,29.73
2022-12-26T16:36:22.303Z,33.03
2022-12-26T16:38:52.260Z,30.43
2022-12-26T16:41:22.942Z,32.27
2022-12-26T16:43:52.160Z,32.60
2022-12-26T16:48:54.074Z,30.70
2022-12-26T16:51:36.275Z,30.90
2022-12-26T16:54:18.804Z,31.67
2022-12-26T16:56:49.907Z,29.17
2022-12-26T16:59:19.867Z,29.33
2022-12-26T17:01:50.343Z,32.07
2022-12-26T17:04:19.997Z,29.90
2022-12-26T17:06:51.949Z,33.20
2022-12-26T17:09:23.055Z,30.53
2022-12-26T17:11:55.670Z,30.97
2022-12-26T17:14:26.559Z,33.97
2022-12-26T17:16:58.692Z,31.70
2022-12-26T17:19:29.667Z,29.83
2022-12-26T17:22:21.966Z,30.83
2022-12-26T17:24:52.431Z,29.87
2022-12-26T17:27:23.279Z,28.43
2022-12-26T17:29:54.212Z,31.63
2022-12-26T17:32:37.063Z,29.17
2022-12-26T17:35:08.718Z,29.90
2022-12-26T17:37:36.709Z,29.83
2022-12-26T17:40:19.598Z,30.43
2022-12-26T17:42:50.404Z,29.07
2022-12-26T17:45:21.160Z,30.27
2022-12-26T17:47:49.031Z,33.87
2022-12-26T17:50:16.648Z,28.63
2022-12-26T17:52:44.311Z,30.23
2022-12-26T17:55:19.763Z,29.60
2022-12-26T17:57:47.596Z,30.83
2022-12-26T18:00:20.679Z,29.67
2022-12-26T18:02:48.422Z,29.80
2022-12-26T18:05:16.998Z,30.63
2022-12-26T18:07:46.195Z,29.80
2022-12-26T18:10:20.446Z,30.47
2022-12-26T18:12:49.047Z,32.27
2022-12-26T18:15:16.882Z,31.27
2022-12-26T18:17:44.992Z,30.80
2022-12-26T18:20:17.531Z,30.57
2022-12-26T18:22:46.299Z,30.53
2022-12-26T18:25:14.607Z,30.27
2022-12-26T18:27:44.215Z,33.37
2022-12-26T18:30:17.317Z,32.07
2022-12-26T18:32:50.460Z,31.27
2022-12-26T18:35:18.661Z,30.87
2022-12-26T18:37:49.126Z,30.50
2022-12-26T18:40:29.698Z,31.13
2022-12-26T18:42:58.873Z,30.70
2022-12-26T18:45:26.822Z,29.30
2022-12-26T18:47:54.493Z,30.57
2022-12-26T18:50:22.458Z,31.17
2022-12-26T18:52:53.583Z,31.43
2022-12-26T18:55:21.820Z,30.10
2022-12-26T18:57:49.444Z,31.07
2022-12-26T19:00:19.379Z,30.47
2022-12-26T19:02:48.339Z,30.50
2022-12-26T19:05:18.925Z,30.80
2022-12-26T19:07:48.321Z,30.07
2022-12-26T19:10:17.544Z,29.93
2022-12-26T19:12:45.157Z,31.33
2022-12-26T19:15:13.916Z,31.30
2022-12-26T19:17:43.715Z,30.90
2022-12-26T19:20:18.971Z,30.57
2022-12-26T19:22:47.295Z,30.67
2022-12-26T19:25:15.417Z,31.57
2022-12-26T19:27:43.055Z,29.77
2022-12-26T19:30:11.876Z,31.73
2022-12-26T19:32:39.614Z,31.17
2022-12-26T19:35:09.239Z,32.03
2022-12-26T19:37:36.944Z,30.03
2022-12-26T19:40:05.274Z,29.20
2022-12-26T19:42:34.580Z,31.87
2022-12-26T19:45:02.673Z,31.60
2022-12-26T19:47:30.235Z,30.07
2022-12-26T19:49:57.844Z,30.60
2022-12-26T19:52:26.784Z,31.07
2022-12-26T19:54:54.392Z,32.27
2022-12-26T19:57:23.244Z,31.97
2022-12-26T19:59:50.907Z,29.73
2022-12-26T20:02:18.749Z,33.80
2022-12-26T20:04:46.588Z,33.20
2022-12-26T20:07:14.453Z,32.77
2022-12-26T20:09:43.383Z,32.77
2022-12-26T20:12:10.972Z,33.00
2022-12-26T20:14:39.607Z,31.20
2022-12-26T20:17:09.431Z,30.40
2022-12-26T20:19:37.658Z,31.83
2022-12-26T20:22:06.462Z,31.63
2022-12-26T20:24:35.033Z,33.10
2022-12-26T20:27:04.584Z,30.97
2022-12-26T20:29:32.587Z,31.80
2022-12-26T20:32:00.416Z,33.30
2022-12-26T20:34:28.106Z,32.30
2022-12-26T20:36:55.688Z,30.40
2022-12-26T20:39:25.505Z,30.40
2022-12-26T20:41:53.173Z,30.43
2022-12-26T20:44:22.466Z,31.90
2022-12-26T20:46:50.081Z,32.23
2022-12-26T20:49:17.961Z,31.70
2022-12-26T20:51:45.877Z,30.97
2022-12-26T20:54:15.371Z,30.00
2022-12-26T20:56:43.403Z,30.80
2022-12-26T20:59:11.066Z,31.30
2022-12-26T21:01:40.694Z,30.93
2022-12-26T21:04:09.140Z,32.47
2022-12-26T21:06:38.370Z,29.47
2022-12-26T21:09:07.291Z,30.10
2022-12-26T21:11:37.928Z,30.50
2022-12-26T21:14:09.301Z,30.73
2022-12-26T21:16:38.890Z,31.07
2022-12-26T21:19:14.662Z,31.27
2022-12-26T21:21:43.995Z,32.47
2022-12-26T21:24:13.690Z,31.53
2022-12-26T21:26:42.908Z,31.80
2022-12-26T21:29:17.100Z,32.97
2022-12-26T21:31:45.499Z,44.77
2022-12-26T21:34:17.167Z,32.27
2022-12-26T21:37:06.122Z,30.53
2022-12-26T21:39:34.141Z,31.83
2022-12-26T21:42:02.769Z,30.80
2022-12-26T21:44:30.465Z,31.47
2022-12-26T21:46:58.014Z,32.23
2022-12-26T21:49:26.969Z,32.47
2022-12-26T21:51:54.649Z,31.37
2022-12-26T21:54:44.821Z,32.17
2022-12-26T21:57:16.998Z,30.77
2022-12-26T21:59:56.831Z,32.50
2022-12-26T22:02:43.194Z,32.43
2022-12-26T22:05:12.696Z,33.63
2022-12-26T22:07:40.510Z,32.93
2022-12-26T22:10:09.224Z,34.40
2022-12-26T22:12:53.405Z,31.57
2022-12-26T22:15:38.814Z,33.50
2022-12-26T22:18:06.479Z,34.27
2022-12-26T22:20:36.672Z,33.83
2022-12-26T22:23:04.534Z,33.33
2022-12-26T22:25:32.076Z,32.43
2022-12-26T22:28:00.621Z,32.80
2022-12-26T22:30:28.191Z,33.70
2022-12-26T22:32:55.770Z,31.90
2022-12-26T22:35:23.327Z,33.33
2022-12-26T22:37:52.599Z,32.00
2022-12-26T22:40:20.228Z,58.90
2022-12-26T22:42:47.806Z,32.07
2022-12-26T22:45:15.443Z,33.00
2022-12-26T22:47:42.987Z,34.13
2022-12-26T22:50:15.223Z,35.20
2022-12-26T22:52:43.307Z,32.43
2022-12-26T22:55:13.493Z,33.90
2022-12-26T22:57:41.656Z,32.03
2022-12-26T23:00:13.344Z,32.27
2022-12-26T23:02:41.238Z,30.73
2022-12-26T23:05:11.172Z,31.63
2022-12-26T23:07:39.318Z,30.23
2022-12-26T23:10:08.424Z,31.07
2022-12-26T23:12:44.191Z,30.07
2022-12-26T23:15:14.362Z,30.43
2022-12-26T23:18:04.329Z,31.07
2022-12-26T23:20:53.267Z,32.27
2022-12-26T23:23:21.507Z,31.53
2022-12-26T23:25:49.649Z,32.83
2022-12-26T23:28:36.171Z,31.07
2022-12-26T23:31:04.463Z,31.00
2022-12-26T23:33:32.916Z,30.80
2022-12-26T23:36:00.817Z,29.57
2022-12-26T23:38:28.424Z,32.10
2022-12-26T23:40:56.335Z,30.83
2022-12-26T23:43:25.332Z,32.07
2022-12-26T23:45:52.955Z,30.13
2022-12-26T23:48:20.561Z,30.07
2022-12-26T23:50:49.462Z,31.37
2022-12-26T23:53:17.107Z,30.57
2022-12-26T23:55:44.777Z,30.77
2022-12-26T23:58:12.388Z,31.87
